Terminal Aerodrome Forecast
Issued by NWS

Home | Current Version | Previous Version | Text Only | Print | Product List | Glossary Off
Versions: 1 2 3 4 5 6 7 8 9 10 11 12 13 14 15 16 17 18 19 20 21 22 23

000
FTUS43 KICT 010209 AAA
TAFCNU
TAF AMD
KCNU 010209Z 0102/0124 09005KT 6SM BR SCT010 OVC040
      TEMPO 0102/0106 OVC010
     FM010600 11004KT 5SM BR OVC012
     FM010900 VRB03KT 3SM BR OVC012
      TEMPO 0109/0113 2SM -FZDZ BR
     FM011500 36005KT P6SM SCT020 BKN050=

USA.gov is the U.S. government's official web portal to all federal, state and local government web resources and services.